Terminal Aerodrome Forecast
Issued by NWS

Home | Current Version | Previous Version | Text Only | Print | Product List | Glossary On
Versions: 1 2 3 4 5 6 7 8 9 10 11 12 13 14 15 16 17 18
000
FTPA31 PHFO 071137
TAFHKO
TAF
PHKO 071137Z 0712/0812 08004KT P6SM FEW050
     FM072000 23008KT P6SM VCSH FEW030 SCT060 BKN200
     FM080400 VRB04KT P6SM VCSH SCT030 BKN060 BKN150=

USA.gov is the U.S. government's official web portal to all federal, state and local government web resources and services.